createdAt,value
2022-08-30T00:00:33.932Z,54.06
2022-08-30T00:03:02.646Z,53.68
2022-08-30T00:05:31.808Z,53.75
2022-08-30T00:08:01.303Z,54.06
2022-08-30T00:10:29.640Z,54.44
2022-08-30T00:12:59.464Z,54.13
2022-08-30T00:15:29.185Z,54.06
2022-08-30T00:17:57.298Z,53.84
2022-08-30T00:20:29.049Z,54.18
2022-08-30T00:22:57.288Z,54.08
2022-08-30T00:25:26.988Z,54.11
2022-08-30T00:27:54.666Z,53.87
2022-08-30T00:30:22.893Z,53.85
2022-08-30T00:32:50.544Z,53.87
2022-08-30T00:35:20.433Z,53.69
2022-08-30T00:37:48.627Z,53.90
2022-08-30T00:40:17.525Z,54.17
2022-08-30T00:42:50.745Z,54.33
2022-08-30T00:45:25.321Z,54.67
2022-08-30T00:47:53.201Z,54.82
2022-08-30T00:50:24.323Z,54.72
2022-08-30T00:52:55.078Z,54.38
2022-08-30T00:55:23.648Z,54.88
2022-08-30T00:57:57.389Z,54.81
2022-08-30T01:00:26.952Z,54.75
2022-08-30T01:02:54.733Z,54.57
2022-08-30T01:05:23.892Z,54.87
2022-08-30T01:07:52.058Z,54.61
2022-08-30T01:10:20.055Z,54.71
2022-08-30T01:12:48.766Z,54.00
2022-08-30T01:15:17.934Z,54.73
2022-08-30T01:17:48.204Z,54.74
2022-08-30T01:20:21.437Z,54.70
2022-08-30T01:23:05.343Z,55.19
2022-08-30T01:25:36.257Z,55.36
2022-08-30T01:28:07.657Z,55.58
2022-08-30T01:30:39.003Z,55.66
2022-08-30T01:33:09.210Z,55.02
2022-08-30T01:35:47.066Z,54.85
2022-08-30T01:38:17.922Z,54.98
2022-08-30T01:40:45.855Z,54.88
2022-08-30T01:43:15.355Z,55.08
2022-08-30T01:45:43.300Z,55.50
2022-08-30T01:48:12.759Z,55.74
2022-08-30T01:50:41.667Z,56.13
2022-08-30T01:53:12.342Z,55.86
2022-08-30T01:55:42.760Z,55.56
2022-08-30T01:58:10.484Z,56.01
2022-08-30T02:00:38.586Z,56.10
2022-08-30T02:03:06.590Z,56.27
2022-08-30T02:05:34.841Z,56.55
2022-08-30T02:08:03.552Z,56.77
2022-08-30T02:10:31.832Z,56.48
2022-08-30T02:13:00.766Z,56.83
2022-08-30T02:15:28.449Z,56.24
2022-08-30T02:17:56.087Z,55.92
2022-08-30T02:20:24.112Z,55.55
2022-08-30T02:22:51.729Z,56.07
2022-08-30T02:25:20.770Z,55.77
2022-08-30T02:27:49.059Z,56.66
2022-08-30T02:30:18.083Z,57.03
2022-08-30T02:32:45.704Z,56.78
2022-08-30T02:35:13.272Z,56.63
2022-08-30T02:37:40.911Z,56.35
2022-08-30T02:40:10.186Z,56.42
2022-08-30T02:42:37.849Z,56.14
2022-08-30T02:45:06.271Z,56.13
2022-08-30T02:47:35.722Z,56.32
2022-08-30T02:50:03.889Z,56.61
2022-08-30T02:52:31.615Z,56.40
2022-08-30T02:54:59.672Z,56.30
2022-08-30T02:57:27.451Z,56.99
2022-08-30T02:59:55.034Z,56.78
2022-08-30T03:02:23.161Z,56.97
2022-08-30T03:04:52.197Z,57.62
2022-08-30T03:07:20.556Z,57.07
2022-08-30T03:09:48.404Z,57.44
2022-08-30T03:12:16.177Z,57.03
2022-08-30T03:14:43.749Z,56.95
2022-08-30T03:17:12.965Z,56.97
2022-08-30T03:19:44.692Z,57.30
2022-08-30T03:22:14.027Z,57.39
2022-08-30T03:24:41.882Z,57.85
2022-08-30T03:27:09.645Z,57.38
2022-08-30T03:29:37.209Z,57.39
2022-08-30T03:32:05.296Z,57.38
2022-08-30T03:34:32.998Z,57.22
2022-08-30T03:37:01.194Z,57.59
2022-08-30T03:39:30.125Z,57.52
2022-08-30T03:41:57.668Z,58.34
2022-08-30T03:44:26.993Z,58.24
2022-08-30T03:46:55.247Z,58.17
2022-08-30T03:49:23.998Z,58.37
2022-08-30T03:51:52.028Z,58.97
2022-08-30T03:54:19.632Z,59.32
2022-08-30T03:56:48.636Z,59.96
2022-08-30T03:59:16.684Z,59.42
2022-08-30T04:01:45.631Z,59.50
2022-08-30T04:04:16.313Z,59.24
2022-08-30T04:06:46.316Z,59.22
2022-08-30T04:09:13.889Z,59.12
2022-08-30T04:11:41.443Z,60.01
2022-08-30T04:14:10.370Z,59.80
2022-08-30T04:16:38.123Z,59.25
2022-08-30T04:19:05.814Z,59.80
2022-08-30T04:21:33.454Z,59.93
2022-08-30T04:24:08.628Z,59.81
2022-08-30T04:26:36.277Z,60.37
2022-08-30T04:29:03.938Z,60.18
2022-08-30T04:31:32.993Z,60.00
2022-08-30T04:34:00.707Z,60.33
2022-08-30T04:36:28.289Z,60.36
2022-08-30T04:38:55.989Z,60.83
2022-08-30T04:41:24.363Z,60.62
2022-08-30T04:43:52.029Z,60.60
2022-08-30T04:46:20.573Z,60.73
2022-08-30T04:48:50.249Z,61.18
2022-08-30T04:51:19.132Z,62.00
2022-08-30T04:53:47.047Z,60.51
2022-08-30T04:56:17.423Z,61.46
2022-08-30T04:58:45.684Z,61.89
2022-08-30T05:01:14.845Z,61.71
2022-08-30T05:03:46.669Z,61.14
2022-08-30T05:06:16.518Z,60.88
2022-08-30T05:08:45.911Z,60.85
2022-08-30T05:11:14.778Z,61.04
2022-08-30T05:13:42.520Z,61.28
2022-08-30T05:16:10.365Z,61.27
2022-08-30T05:18:38.297Z,61.76
2022-08-30T05:21:08.750Z,61.79
2022-08-30T05:23:38.346Z,61.93
2022-08-30T05:26:07.847Z,61.62
2022-08-30T05:28:36.187Z,61.58
2022-08-30T05:31:04.792Z,61.75
2022-08-30T05:33:41.750Z,61.11
2022-08-30T05:36:10.966Z,61.30
2022-08-30T05:38:40.625Z,61.81
2022-08-30T05:41:10.873Z,60.52
2022-08-30T05:43:39.273Z,59.94
2022-08-30T05:46:10.230Z,60.82
2022-08-30T05:48:38.527Z,60.63
2022-08-30T05:51:09.301Z,59.83
2022-08-30T05:53:36.992Z,59.53
2022-08-30T05:56:08.721Z,60.13
2022-08-30T05:58:36.717Z,59.77
2022-08-30T06:01:05.011Z,59.92
2022-08-30T06:03:33.374Z,59.18
2022-08-30T06:06:02.379Z,59.00
2022-08-30T06:08:30.245Z,59.00
2022-08-30T06:10:57.831Z,59.16
2022-08-30T06:13:26.719Z,58.72
2022-08-30T06:15:54.287Z,59.16
2022-08-30T06:18:28.272Z,59.41
2022-08-30T06:20:56.147Z,59.04
2022-08-30T06:23:24.143Z,59.24
2022-08-30T06:25:52.121Z,59.50
2022-08-30T06:28:19.700Z,59.54
2022-08-30T06:30:48.645Z,59.48
2022-08-30T06:33:16.215Z,58.72
2022-08-30T06:35:58.377Z,59.11
2022-08-30T06:38:27.600Z,59.67
2022-08-30T06:40:55.188Z,59.30
2022-08-30T06:43:22.755Z,59.30
2022-08-30T06:45:51.903Z,59.48
2022-08-30T06:48:19.470Z,59.21
2022-08-30T06:50:47.024Z,59.60
2022-08-30T06:53:15.338Z,58.72
2022-08-30T06:55:42.879Z,58.73
2022-08-30T06:58:10.399Z,58.50
2022-08-30T07:00:38.025Z,58.20
2022-08-30T07:03:07.239Z,58.09
2022-08-30T07:05:34.821Z,58.35
2022-08-30T07:08:02.616Z,58.38
2022-08-30T07:10:30.177Z,58.53
2022-08-30T07:12:57.965Z,58.75
2022-08-30T07:15:25.887Z,58.92
2022-08-30T07:18:10.980Z,58.79
2022-08-30T07:20:40.879Z,59.03
2022-08-30T07:23:08.830Z,58.22
2022-08-30T07:25:37.217Z,58.15
2022-08-30T07:28:05.450Z,57.91
2022-08-30T07:30:33.600Z,57.68
2022-08-30T07:33:01.256Z,57.25
2022-08-30T07:35:29.269Z,57.43
2022-08-30T07:37:58.606Z,57.83
2022-08-30T07:40:26.640Z,58.14
2022-08-30T07:42:54.806Z,57.62
2022-08-30T07:45:22.366Z,58.41
2022-08-30T07:47:49.935Z,58.31
2022-08-30T07:50:18.049Z,57.83
2022-08-30T07:52:45.618Z,56.97
2022-08-30T07:55:14.505Z,56.51
2022-08-30T07:57:42.042Z,56.53
2022-08-30T08:00:11.620Z,56.23
2022-08-30T08:02:40.676Z,56.29
2022-08-30T08:05:12.811Z,56.02
2022-08-30T08:07:44.028Z,56.01
2022-08-30T08:10:11.639Z,55.42
2022-08-30T08:12:40.892Z,56.04
2022-08-30T08:15:11.467Z,55.58
2022-08-30T08:17:39.108Z,55.25
2022-08-30T08:20:07.783Z,55.75
2022-08-30T08:22:39.751Z,55.80
2022-08-30T08:25:08.259Z,56.18
2022-08-30T08:27:35.884Z,55.49
2022-08-30T08:30:05.727Z,55.54
2022-08-30T08:32:33.259Z,54.84
2022-08-30T08:35:00.798Z,54.67
2022-08-30T08:37:28.354Z,55.15
2022-08-30T08:39:55.900Z,55.26
2022-08-30T08:42:31.815Z,54.93
2022-08-30T08:45:07.437Z,54.46
2022-08-30T08:47:42.415Z,54.70
2022-08-30T08:50:17.421Z,54.24
2022-08-30T08:53:10.789Z,53.93
2022-08-30T08:55:48.199Z,53.65
2022-08-30T08:58:23.368Z,53.81
2022-08-30T09:00:51.386Z,53.37
2022-08-30T09:03:22.164Z,53.48
2022-08-30T09:05:50.726Z,52.83
2022-08-30T09:08:23.357Z,53.05
2022-08-30T09:10:56.771Z,53.01
2022-08-30T09:13:25.726Z,52.69
2022-08-30T09:15:57.048Z,52.47
2022-08-30T09:18:46.918Z,52.48
2022-08-30T09:21:25.337Z,52.37
2022-08-30T09:23:59.350Z,52.22
2022-08-30T09:26:32.668Z,51.82
2022-08-30T09:29:00.911Z,51.74
2022-08-30T09:31:31.466Z,51.33
2022-08-30T09:34:05.136Z,51.68
2022-08-30T09:36:40.648Z,51.21
2022-08-30T09:39:16.818Z,51.50
2022-08-30T09:41:48.158Z,51.20
2022-08-30T09:44:19.329Z,51.34
2022-08-30T09:46:50.782Z,51.70
2022-08-30T09:49:37.730Z,51.23
2022-08-30T09:52:27.269Z,50.78
2022-08-30T09:55:14.581Z,50.72
2022-08-30T09:57:52.461Z,50.32
2022-08-30T10:00:22.560Z,50.40
2022-08-30T10:03:04.273Z,50.12
2022-08-30T10:05:43.468Z,50.07
2022-08-30T10:08:25.313Z,49.58
2022-08-30T10:10:57.890Z,49.76
2022-08-30T10:14:05.069Z,50.35
2022-08-30T10:16:43.419Z,50.07
2022-08-30T10:19:25.072Z,49.53
2022-08-30T10:22:00.206Z,49.25
2022-08-30T10:24:33.796Z,48.88
2022-08-30T10:27:08.553Z,48.85
2022-08-30T10:29:42.513Z,49.65
2022-08-30T10:32:19.989Z,48.81
2022-08-30T10:34:52.507Z,48.79
2022-08-30T10:37:26.345Z,48.79
2022-08-30T10:39:56.393Z,48.18
2022-08-30T10:42:27.684Z,48.37
2022-08-30T10:45:03.984Z,48.06
2022-08-30T10:47:38.051Z,47.63
2022-08-30T10:50:13.105Z,47.61
2022-08-30T10:52:45.921Z,47.04
2022-08-30T10:55:18.506Z,47.07
2022-08-30T10:57:46.302Z,47.31
2022-08-30T11:00:17.520Z,47.17
2022-08-30T11:03:16.657Z,46.41
2022-08-30T11:06:07.048Z,45.44
2022-08-30T11:08:55.316Z,45.68
2022-08-30T11:11:36.772Z,46.25
2022-08-30T11:14:10.952Z,46.14
2022-08-30T11:16:41.298Z,45.00
2022-08-30T11:19:18.869Z,44.92
2022-08-30T11:21:50.860Z,45.37
2022-08-30T11:24:22.209Z,45.48
2022-08-30T11:26:57.374Z,45.14
2022-08-30T11:29:40.164Z,46.92
2022-08-30T11:32:24.062Z,47.20
2022-08-30T11:35:00.688Z,47.33
2022-08-30T11:37:37.238Z,48.29
2022-08-30T11:40:13.247Z,46.95
2022-08-30T11:42:45.553Z,46.66
2022-08-30T11:45:45.671Z,46.41
2022-08-30T11:48:54.213Z,45.35
2022-08-30T11:52:23.615Z,45.02
2022-08-30T11:54:55.675Z,43.59
2022-08-30T11:57:32.164Z,44.39
2022-08-30T12:00:08.159Z,44.26
2022-08-30T12:02:49.947Z,42.66
2022-08-30T12:05:59.060Z,42.78
2022-08-30T12:08:47.501Z,43.23
2022-08-30T12:12:04.423Z,42.86
2022-08-30T12:14:41.033Z,42.30
2022-08-30T12:17:33.676Z,42.60
2022-08-30T12:20:01.619Z,42.55
2022-08-30T12:22:30.495Z,42.55
2022-08-30T12:24:58.193Z,42.52
2022-08-30T12:27:32.695Z,42.38
2022-08-30T12:30:05.973Z,42.27
2022-08-30T12:32:34.103Z,42.99
2022-08-30T12:35:03.990Z,42.21
2022-08-30T12:37:33.970Z,42.08
2022-08-30T12:40:06.103Z,42.00
2022-08-30T12:42:36.759Z,42.19
2022-08-30T12:45:10.286Z,41.34
2022-08-30T12:47:43.309Z,42.01
2022-08-30T12:50:15.338Z,41.65
2022-08-30T12:52:46.574Z,41.10
2022-08-30T12:55:19.163Z,40.63
2022-08-30T12:58:00.855Z,41.03
2022-08-30T13:00:32.312Z,40.35
2022-08-30T13:03:16.707Z,40.43
2022-08-30T13:05:52.828Z,39.99
2022-08-30T13:08:25.253Z,39.96
2022-08-30T13:11:01.517Z,39.86
2022-08-30T13:13:37.434Z,38.57
2022-08-30T13:16:24.744Z,39.28
2022-08-30T13:18:56.121Z,39.95
2022-08-30T13:21:27.087Z,38.68
2022-08-30T13:23:59.038Z,39.53
2022-08-30T13:26:28.152Z,39.12
2022-08-30T13:28:58.747Z,38.68
2022-08-30T13:31:30.134Z,39.17
2022-08-30T13:33:58.725Z,38.85
2022-08-30T13:36:31.488Z,39.41
2022-08-30T13:39:00.705Z,38.63
2022-08-30T13:41:30.147Z,38.78
2022-08-30T13:44:13.274Z,38.04
2022-08-30T13:46:53.286Z,37.32
2022-08-30T13:52:21.279Z,37.50
2022-08-30T13:54:50.242Z,37.51
2022-08-30T13:57:53.427Z,38.73
2022-08-30T14:00:10.053Z,37.69
2022-08-30T14:02:45.393Z,37.66
2022-08-30T14:05:37.602Z,37.68
2022-08-30T14:08:01.802Z,37.85
2022-08-30T14:10:31.950Z,37.26
2022-08-30T14:13:08.097Z,37.03
2022-08-30T14:15:38.825Z,37.47
2022-08-30T14:18:09.243Z,37.21
2022-08-30T14:20:38.679Z,37.25
2022-08-30T14:23:10.231Z,37.83
2022-08-30T14:25:40.301Z,37.68
2022-08-30T14:28:09.600Z,38.73
2022-08-30T14:30:38.794Z,38.13
2022-08-30T14:33:08.410Z,38.52
2022-08-30T14:35:36.627Z,37.93
2022-08-30T14:38:04.950Z,37.91
2022-08-30T14:40:33.753Z,38.38
2022-08-30T14:43:02.454Z,37.73
2022-08-30T14:45:30.032Z,38.10
2022-08-30T14:47:58.861Z,37.85
2022-08-30T14:50:28.705Z,37.84
2022-08-30T14:52:56.282Z,37.80
2022-08-30T14:55:24.060Z,37.42
2022-08-30T14:57:51.630Z,38.26
2022-08-30T15:00:19.866Z,37.72
2022-08-30T15:02:47.430Z,38.04
2022-08-30T15:05:15.043Z,38.38
2022-08-30T15:07:44.918Z,37.48
2022-08-30T15:10:14.747Z,37.32
2022-08-30T15:12:42.365Z,37.06
2022-08-30T15:15:20.494Z,37.26
2022-08-30T15:17:48.196Z,37.51
2022-08-30T15:20:18.667Z,37.64
2022-08-30T15:22:47.989Z,37.43
2022-08-30T15:25:16.147Z,37.79
2022-08-30T15:27:44.588Z,38.05
2022-08-30T15:30:13.000Z,38.03
2022-08-30T15:32:42.347Z,37.81
2022-08-30T15:35:10.829Z,37.54
2022-08-30T15:37:38.553Z,37.30
2022-08-30T15:40:09.072Z,38.21
2022-08-30T15:42:36.691Z,38.28
2022-08-30T15:45:04.733Z,39.04
2022-08-30T15:47:33.985Z,38.11
2022-08-30T15:50:04.970Z,37.99
2022-08-30T15:52:33.141Z,38.27
2022-08-30T15:55:00.857Z,38.75
2022-08-30T15:57:29.825Z,38.02
2022-08-30T15:59:57.484Z,38.54
2022-08-30T16:02:27.514Z,38.25
2022-08-30T16:04:55.599Z,38.12
2022-08-30T16:07:23.219Z,39.12
2022-08-30T16:09:51.302Z,38.87
2022-08-30T16:12:23.748Z,38.84
2022-08-30T16:14:52.917Z,38.85
2022-08-30T16:17:20.474Z,38.96
2022-08-30T16:19:48.026Z,39.00
2022-08-30T16:22:22.013Z,39.51
2022-08-30T16:24:50.149Z,39.55
2022-08-30T16:27:17.734Z,39.85
2022-08-30T16:29:45.302Z,39.34
2022-08-30T16:32:14.341Z,39.63
2022-08-30T16:34:41.944Z,39.56
2022-08-30T16:37:09.574Z,39.01
2022-08-30T16:39:37.224Z,38.98
2022-08-30T16:42:06.583Z,40.13
2022-08-30T16:44:34.771Z,39.75
2022-08-30T16:47:02.495Z,39.62
2022-08-30T16:49:31.738Z,40.02
2022-08-30T16:51:59.317Z,39.41
2022-08-30T16:54:27.002Z,39.64
2022-08-30T16:56:55.440Z,39.75
2022-08-30T16:59:23.642Z,39.39
2022-08-30T17:01:51.433Z,39.58
2022-08-30T17:04:20.244Z,39.86
2022-08-30T17:06:50.569Z,39.95
2022-08-30T17:09:19.588Z,39.57
2022-08-30T17:11:48.222Z,39.67
2022-08-30T17:14:21.512Z,39.83
2022-08-30T17:16:51.163Z,39.92
2022-08-30T17:19:18.733Z,39.75
2022-08-30T17:21:56.232Z,39.72
2022-08-30T17:24:24.617Z,39.55
2022-08-30T17:26:52.302Z,40.01
2022-08-30T17:29:20.643Z,40.11
2022-08-30T17:31:51.202Z,40.49
2022-08-30T17:34:21.005Z,40.28
2022-08-30T17:36:50.544Z,40.00
2022-08-30T17:39:19.728Z,40.61
2022-08-30T17:41:50.325Z,39.88
2022-08-30T17:44:19.459Z,40.09
2022-08-30T17:46:47.154Z,40.91
2022-08-30T17:49:15.231Z,40.38
2022-08-30T17:51:44.274Z,40.09
2022-08-30T17:54:13.022Z,40.26
2022-08-30T17:56:42.904Z,40.04
2022-08-30T17:59:11.669Z,40.09
2022-08-30T18:01:41.558Z,40.66
2022-08-30T18:04:10.743Z,40.96
2022-08-30T18:06:38.314Z,40.71
2022-08-30T18:09:09.211Z,41.02
2022-08-30T18:11:39.463Z,40.98
2022-08-30T18:14:10.831Z,41.12
2022-08-30T18:16:49.870Z,41.41
2022-08-30T18:19:22.439Z,41.76
2022-08-30T18:21:49.996Z,41.33
2022-08-30T18:24:17.908Z,41.56
2022-08-30T18:26:46.493Z,42.22
2022-08-30T18:29:26.168Z,41.74
2022-08-30T18:31:57.676Z,41.99
2022-08-30T18:34:25.216Z,41.98
2022-08-30T18:36:52.772Z,42.43
2022-08-30T18:39:21.809Z,42.45
2022-08-30T18:41:50.652Z,42.37
2022-08-30T18:44:29.577Z,42.69
2022-08-30T18:47:03.764Z,42.15
2022-08-30T18:49:34.680Z,41.92
2022-08-30T18:52:03.785Z,42.47
2022-08-30T18:54:31.671Z,42.66
2022-08-30T18:57:01.564Z,42.46
2022-08-30T18:59:35.687Z,42.96
2022-08-30T19:02:20.344Z,43.02
2022-08-30T19:04:56.702Z,42.47
2022-08-30T19:07:29.950Z,42.77
2022-08-30T19:10:06.007Z,42.96
2022-08-30T19:12:34.201Z,42.41
2022-08-30T19:15:11.017Z,42.60
2022-08-30T19:17:41.253Z,42.95
2022-08-30T19:20:10.109Z,42.77
2022-08-30T19:23:08.853Z,43.08
2022-08-30T19:25:35.547Z,42.88
2022-08-30T19:28:11.045Z,42.97
2022-08-30T19:30:40.475Z,42.74
2022-08-30T19:33:08.075Z,42.63
2022-08-30T19:35:50.847Z,42.72
2022-08-30T19:38:19.016Z,43.46
2022-08-30T19:40:52.371Z,43.19
2022-08-30T19:43:27.332Z,42.76
2022-08-30T19:46:00.896Z,42.98
2022-08-30T19:48:33.256Z,43.11
2022-08-30T19:51:07.890Z,42.54
2022-08-30T19:53:35.885Z,43.11
2022-08-30T19:56:03.944Z,43.00
2022-08-30T19:58:31.681Z,42.72
2022-08-30T20:01:10.935Z,42.78
2022-08-30T20:03:40.112Z,43.04
2022-08-30T20:06:09.023Z,42.91
2022-08-30T20:08:36.671Z,42.33
2022-08-30T20:11:04.811Z,42.16
2022-08-30T20:13:33.929Z,42.50
2022-08-30T20:16:03.731Z,42.57
2022-08-30T20:18:31.580Z,42.48
2022-08-30T20:20:59.138Z,42.03
2022-08-30T20:23:26.836Z,41.92
2022-08-30T20:25:55.582Z,41.74
2022-08-30T20:28:24.532Z,42.46
2022-08-30T20:30:52.707Z,42.71
2022-08-30T20:33:22.360Z,42.05
2022-08-30T20:35:51.421Z,41.91
2022-08-30T20:38:22.012Z,41.95
2022-08-30T20:40:54.879Z,42.44
2022-08-30T20:43:30.173Z,41.92
2022-08-30T20:46:18.696Z,41.83
2022-08-30T20:48:53.983Z,41.83
2022-08-30T20:51:27.588Z,41.80
2022-08-30T20:53:58.583Z,42.21
2022-08-30T20:56:27.626Z,42.06
2022-08-30T20:58:55.251Z,41.52
2022-08-30T21:01:23.425Z,41.73
2022-08-30T21:03:52.488Z,41.51
2022-08-30T21:06:21.675Z,42.01
2022-08-30T21:08:49.505Z,41.88
2022-08-30T21:11:17.073Z,42.22
2022-08-30T21:13:44.658Z,42.07
2022-08-30T21:16:12.723Z,42.00
2022-08-30T21:18:40.317Z,41.92
2022-08-30T21:21:13.764Z,41.88
2022-08-30T21:23:42.687Z,42.02
2022-08-30T21:26:11.852Z,42.32
2022-08-30T21:28:39.992Z,42.39
2022-08-30T21:31:09.327Z,42.29
2022-08-30T21:33:37.015Z,42.37
2022-08-30T21:36:23.006Z,41.88
2022-08-30T21:38:53.508Z,41.95
2022-08-30T21:41:22.088Z,42.04
2022-08-30T21:43:49.877Z,41.92
2022-08-30T21:46:17.831Z,42.08
2022-08-30T21:48:46.467Z,42.89
2022-08-30T21:51:14.047Z,42.25
2022-08-30T21:53:41.617Z,42.65
2022-08-30T21:56:15.476Z,42.84
2022-08-30T21:58:46.348Z,42.66
2022-08-30T22:01:17.397Z,42.84
2022-08-30T22:03:45.649Z,42.80
2022-08-30T22:06:14.969Z,43.17
2022-08-30T22:08:44.848Z,43.32
2022-08-30T22:11:19.000Z,42.76
2022-08-30T22:13:48.666Z,43.18
2022-08-30T22:16:17.253Z,42.67
2022-08-30T22:18:45.109Z,43.09
2022-08-30T22:21:15.177Z,42.97
2022-08-30T22:23:43.585Z,43.07
2022-08-30T22:26:12.014Z,43.17
2022-08-30T22:28:41.222Z,43.58
2022-08-30T22:31:11.958Z,43.30
2022-08-30T22:33:40.031Z,43.28
2022-08-30T22:36:08.434Z,44.11
2022-08-30T22:38:36.378Z,44.05
2022-08-30T22:41:04.128Z,43.59
2022-08-30T22:43:31.646Z,43.62
2022-08-30T22:46:00.923Z,43.75
2022-08-30T22:48:28.484Z,44.12
2022-08-30T22:50:56.047Z,43.65
2022-08-30T22:53:23.587Z,43.61
2022-08-30T22:55:51.168Z,43.75
2022-08-30T22:58:19.287Z,44.42
2022-08-30T23:00:49.725Z,44.06
2022-08-30T23:03:24.474Z,43.84
2022-08-30T23:05:52.001Z,43.76
2022-08-30T23:08:19.591Z,43.84
2022-08-30T23:10:47.138Z,43.57
2022-08-30T23:13:14.682Z,44.25
2022-08-30T23:15:42.455Z,44.33
2022-08-30T23:18:10.040Z,44.27
2022-08-30T23:20:38.920Z,44.00
2022-08-30T23:23:05.385Z,43.87
2022-08-30T23:25:52.281Z,45.05
2022-08-30T23:28:39.521Z,44.24
2022-08-30T23:31:29.997Z,44.62
2022-08-30T23:34:15.566Z,44.37
2022-08-30T23:37:02.806Z,44.42
2022-08-30T23:39:48.047Z,44.46
2022-08-30T23:42:33.361Z,45.69
2022-08-30T23:45:18.763Z,45.01
2022-08-30T23:48:04.070Z,45.40
2022-08-30T23:50:49.420Z,45.88
2022-08-30T23:53:35.981Z,45.97
2022-08-30T23:56:21.251Z,46.69
2022-08-30T23:59:06.102Z,46.17
